Terminal Aerodrome Forecast
Issued by NWS

Home | Current Version | Previous Version | Text Only | Print | Product List | Glossary On
Versions: 1 2 3 4 5 6 7 8 9 10 11 12
000
FTUS46 KLOX 182300
TAFLGB
TAF
KLGB 182337Z 1900/1924 24008KT P6SM SKC
     FM190400 VRB03KT P6SM SKC
     FM190800 VRB03KT 5SM BR BKN008
     FM191000 VRB03KT 2SM BR OVC006
     FM191500 VRB03KT 4SM BR OVC010
     FM191800 18006KT P6SM SCT013
     FM192000 19009KT P6SM SCT250=

USA.gov is the U.S. government's official web portal to all federal, state and local government web resources and services.